Agate, Nebraska
Current Conditions -  °F | °C
As of 1:53 AM on Sunday 26 Oct 2014 (Local Time) from KTOR Reporting Station
Clear Clear  
Wind Chill:   Ceiling: Unl
Heat Index:   Visibility: 10mi
Dew Point:   Wind: 9mph
Humidity: 68%   Direction: 60°ENE
Pressure: 29.86"   Gusts: NA
Location:  42.42°N, 103.79°W
Report Text: KTOR 260753Z AUTO 06008KT 10SM CLR 07/01 A2986 RMK AO2 SLP081 T00670011
Loading
Personal Weather Stations






























Interactive Weather Map
Tropical Storm Tracking
New forecast layout! Learn more

10-Day Weather Forecast

Advertisements
Track Severe Weather on mobile